South Egremont, MA (01258)

1:12 PM EDT on September 02, 2015 (GMT -0400)
Copake Country Club | | Change Station
CLOSE
Current Station
Personal Weather Station
Location: Craryville, NY
Elevation: 774 ft
Nearby Weather Stations

Elev 774 ft 42.15 °N, 73.60 °W | Updated 8 minutes ago

Partly Cloudy
Partly Cloudy
81.1 °F
Feels Like 85 °F
N
3.0
Wind Variable Wind from West
Gusts 7.0 mph

Today
High -- | Low -- °F
--% Chance of Precip.
Yesterday
High -- | Low -- °F
Precip. -- in
6:20 AM 7:26 PM
Waning Gibbous, 79% visible
Pressure 29.94 in
Visibility 9.0 miles
Clouds Few 2600 ft
Heat Index 85 °F
Dew Point 70 °F
Humidity 69%
Rainfall 0.00 in
Snow Depth Not available.
UV 9 out of 12
Pollen 9.40 out of 12
Air Quality Not available.
Flu Activity Not available.
METAR KPSF 021654Z AUTO 27011KT 9SM FEW026 26/18 A3001 RMK AO2 SLP137 T02610183
Pressure 29.94 in
Visibility 9.0 miles
Clouds Few 2600 ft
Heat Index 85 °F
Dew Point 70 °F
Humidity 69%
Rainfall 0.00 in
Snow Depth Not available.
UV 9 out of 12
Pollen 9.40 out of 12
Air Quality Not available.
Flu Activity Not available.
METAR KPSF 021654Z AUTO 27011KT 9SM FEW026 26/18 A3001 RMK AO2 SLP137 T02610183

10-Day Weather Forecast

×

Almanac

Astronomy

Sep. 02, 2015 Rise Set
Actual Time
Civil Twilight
Nautical Twilight
Astronomical Twilight
Moon
Length of Visible Light
Length of Day
Tomorrow will be .
, % of the Moon is Illuminated

Today's Extremes

State Highs State Lows

Community

WunderPhotos

Upload Photos

1,851,785 photos uploaded!

WunderBlogs® & News

Nearby

Air Quality

  Air Quality AQ Index Pollutant
Not available.

Snow Depth

Station Depth Elevation

Earthquake Activity

City Distance Mag. Time & Date
Minimum magnitude displayed is 2.5.

Coastal Water Temperatures

Place Temperature

Stations

Nearby Weather Stations

Station Location Temp. Windchill Dew Point Humidity Wind Precip. Elev Updated Type